sensor_id;sensor_type;location;lat;lon;timestamp;P1;durP1;ratioP1;P2;durP2;ratioP2
45136;SDS011;30894;51.740;19.498;2023-02-19T00:01:41;1.00;;;0.90;;
45136;SDS011;30894;51.740;19.498;2023-02-19T00:04:16;1.00;;;0.93;;
45136;SDS011;30894;51.740;19.498;2023-02-19T00:06:44;1.67;;;1.55;;
45136;SDS011;30894;51.740;19.498;2023-02-19T00:09:12;3.63;;;1.38;;
45136;SDS011;30894;51.740;19.498;2023-02-19T00:11:39;2.63;;;2.42;;
45136;SDS011;30894;51.740;19.498;2023-02-19T00:14:06;3.38;;;1.13;;
45136;SDS011;30894;51.740;19.498;2023-02-19T00:16:34;3.33;;;1.27;;
45136;SDS011;30894;51.740;19.498;2023-02-19T00:19:05;3.70;;;1.48;;
45136;SDS011;30894;51.740;19.498;2023-02-19T00:21:35;0.88;;;0.88;;
45136;SDS011;30894;51.740;19.498;2023-02-19T00:24:02;1.05;;;0.98;;
45136;SDS011;30894;51.740;19.498;2023-02-19T00:26:31;2.65;;;1.38;;
45136;SDS011;30894;51.740;19.498;2023-02-19T00:28:58;1.45;;;1.25;;
45136;SDS011;30894;51.740;19.498;2023-02-19T00:31:27;4.53;;;2.45;;
45136;SDS011;30894;51.740;19.498;2023-02-19T00:33:58;1.45;;;0.98;;
45136;SDS011;30894;51.740;19.498;2023-02-19T00:36:27;6.07;;;1.98;;
45136;SDS011;30894;51.740;19.498;2023-02-19T00:38:56;2.05;;;1.35;;
45136;SDS011;30894;51.740;19.498;2023-02-19T00:41:23;1.45;;;1.35;;
45136;SDS011;30894;51.740;19.498;2023-02-19T00:44:03;5.03;;;2.10;;
45136;SDS011;30894;51.740;19.498;2023-02-19T00:46:32;1.90;;;1.50;;
45136;SDS011;30894;51.740;19.498;2023-02-19T00:49:02;1.48;;;1.33;;
45136;SDS011;30894;51.740;19.498;2023-02-19T00:51:31;2.22;;;1.75;;
45136;SDS011;30894;51.740;19.498;2023-02-19T00:54:00;3.15;;;1.08;;
45136;SDS011;30894;51.740;19.498;2023-02-19T00:56:26;1.48;;;1.17;;
45136;SDS011;30894;51.740;19.498;2023-02-19T00:58:53;1.52;;;1.05;;
45136;SDS011;30894;51.740;19.498;2023-02-19T01:01:20;5.35;;;2.22;;
45136;SDS011;30894;51.740;19.498;2023-02-19T01:03:46;2.17;;;1.30;;
45136;SDS011;30894;51.740;19.498;2023-02-19T01:06:14;1.30;;;1.20;;
45136;SDS011;30894;51.740;19.498;2023-02-19T01:08:42;2.35;;;1.35;;
45136;SDS011;30894;51.740;19.498;2023-02-19T01:11:09;5.25;;;1.80;;
45136;SDS011;30894;51.740;19.498;2023-02-19T01:13:36;1.90;;;1.33;;
45136;SDS011;30894;51.740;19.498;2023-02-19T01:16:08;1.45;;;1.27;;
45136;SDS011;30894;51.740;19.498;2023-02-19T01:18:37;4.18;;;1.02;;
45136;SDS011;30894;51.740;19.498;2023-02-19T01:21:04;1.67;;;0.95;;
45136;SDS011;30894;51.740;19.498;2023-02-19T01:23:33;3.97;;;1.95;;
45136;SDS011;30894;51.740;19.498;2023-02-19T01:26:02;2.80;;;1.50;;
45136;SDS011;30894;51.740;19.498;2023-02-19T01:28:33;4.57;;;1.65;;
45136;SDS011;30894;51.740;19.498;2023-02-19T01:31:01;2.20;;;1.52;;
45136;SDS011;30894;51.740;19.498;2023-02-19T01:33:28;1.63;;;1.40;;
45136;SDS011;30894;51.740;19.498;2023-02-19T01:35:55;0.88;;;0.88;;
45136;SDS011;30894;51.740;19.498;2023-02-19T01:38:21;1.58;;;1.30;;
45136;SDS011;30894;51.740;19.498;2023-02-19T01:40:57;5.75;;;2.40;;
45136;SDS011;30894;51.740;19.498;2023-02-19T01:43:26;1.92;;;1.55;;
45136;SDS011;30894;51.740;19.498;2023-02-19T01:45:53;3.72;;;1.95;;
45136;SDS011;30894;51.740;19.498;2023-02-19T01:48:20;4.55;;;2.35;;
45136;SDS011;30894;51.740;19.498;2023-02-19T01:50:53;3.05;;;2.17;;
45136;SDS011;30894;51.740;19.498;2023-02-19T01:53:33;3.05;;;1.48;;
45136;SDS011;30894;51.740;19.498;2023-02-19T01:56:04;1.93;;;1.40;;
45136;SDS011;30894;51.740;19.498;2023-02-19T01:58:33;3.42;;;2.03;;
45136;SDS011;30894;51.740;19.498;2023-02-19T02:03:39;5.07;;;1.92;;
45136;SDS011;30894;51.740;19.498;2023-02-19T02:08:40;3.67;;;2.00;;
45136;SDS011;30894;51.740;19.498;2023-02-19T02:11:25;1.63;;;1.50;;
45136;SDS011;30894;51.740;19.498;2023-02-19T02:13:53;3.97;;;2.25;;
45136;SDS011;30894;51.740;19.498;2023-02-19T02:16:22;3.20;;;1.55;;
45136;SDS011;30894;51.740;19.498;2023-02-19T02:26:07;2.60;;;1.77;;
45136;SDS011;30894;51.740;19.498;2023-02-19T02:32:19;3.83;;;2.13;;
45136;SDS011;30894;51.740;19.498;2023-02-19T02:35:03;3.00;;;2.08;;
45136;SDS011;30894;51.740;19.498;2023-02-19T02:37:34;2.17;;;1.38;;
45136;SDS011;30894;51.740;19.498;2023-02-19T02:40:05;2.08;;;1.17;;
45136;SDS011;30894;51.740;19.498;2023-02-19T02:42:33;5.63;;;1.27;;
45136;SDS011;30894;51.740;19.498;2023-02-19T02:45:14;2.30;;;1.00;;
45136;SDS011;30894;51.740;19.498;2023-02-19T02:51:01;2.72;;;1.52;;
45136;SDS011;30894;51.740;19.498;2023-02-19T02:54:07;2.95;;;1.70;;
45136;SDS011;30894;51.740;19.498;2023-02-19T02:57:00;2.50;;;1.63;;
45136;SDS011;30894;51.740;19.498;2023-02-19T02:59:28;6.43;;;2.35;;
45136;SDS011;30894;51.740;19.498;2023-02-19T03:02:03;1.45;;;1.17;;
45136;SDS011;30894;51.740;19.498;2023-02-19T03:10:26;6.00;;;3.83;;
45136;SDS011;30894;51.740;19.498;2023-02-19T03:13:01;3.22;;;1.88;;
45136;SDS011;30894;51.740;19.498;2023-02-19T03:15:53;3.80;;;1.83;;
45136;SDS011;30894;51.740;19.498;2023-02-19T03:18:44;4.63;;;1.65;;
45136;SDS011;30894;51.740;19.498;2023-02-19T03:21:35;3.47;;;2.03;;
45136;SDS011;30894;51.740;19.498;2023-02-19T03:24:04;4.40;;;2.40;;
45136;SDS011;30894;51.740;19.498;2023-02-19T03:26:54;3.97;;;2.78;;
45136;SDS011;30894;51.740;19.498;2023-02-19T03:29:28;4.25;;;2.95;;
45136;SDS011;30894;51.740;19.498;2023-02-19T03:31:57;3.42;;;1.67;;
45136;SDS011;30894;51.740;19.498;2023-02-19T03:34:34;7.55;;;2.85;;
45136;SDS011;30894;51.740;19.498;2023-02-19T03:37:37;2.05;;;1.60;;
45136;SDS011;30894;51.740;19.498;2023-02-19T03:40:15;4.82;;;3.35;;
45136;SDS011;30894;51.740;19.498;2023-02-19T03:43:00;3.60;;;2.17;;
45136;SDS011;30894;51.740;19.498;2023-02-19T03:49:00;4.93;;;3.33;;
45136;SDS011;30894;51.740;19.498;2023-02-19T03:51:37;4.55;;;1.92;;
45136;SDS011;30894;51.740;19.498;2023-02-19T03:54:18;1.30;;;1.17;;
45136;SDS011;30894;51.740;19.498;2023-02-19T03:57:00;6.00;;;2.80;;
45136;SDS011;30894;51.740;19.498;2023-02-19T03:59:39;2.30;;;2.10;;
45136;SDS011;30894;51.740;19.498;2023-02-19T04:02:33;6.38;;;3.15;;
45136;SDS011;30894;51.740;19.498;2023-02-19T04:05:13;1.50;;;1.38;;
45136;SDS011;30894;51.740;19.498;2023-02-19T04:07:45;1.92;;;1.52;;
45136;SDS011;30894;51.740;19.498;2023-02-19T04:10:14;9.85;;;1.95;;
45136;SDS011;30894;51.740;19.498;2023-02-19T04:12:45;2.28;;;1.80;;
45136;SDS011;30894;51.740;19.498;2023-02-19T04:15:20;10.75;;;2.33;;
45136;SDS011;30894;51.740;19.498;2023-02-19T04:18:04;4.38;;;2.65;;
45136;SDS011;30894;51.740;19.498;2023-02-19T04:20:39;2.47;;;2.08;;
45136;SDS011;30894;51.740;19.498;2023-02-19T04:23:09;5.47;;;2.03;;
45136;SDS011;30894;51.740;19.498;2023-02-19T04:25:39;4.90;;;1.83;;
45136;SDS011;30894;51.740;19.498;2023-02-19T04:28:12;1.85;;;1.65;;
45136;SDS011;30894;51.740;19.498;2023-02-19T04:30:41;2.55;;;1.50;;
45136;SDS011;30894;51.740;19.498;2023-02-19T04:33:08;3.17;;;1.65;;
45136;SDS011;30894;51.740;19.498;2023-02-19T04:35:34;5.28;;;2.45;;
45136;SDS011;30894;51.740;19.498;2023-02-19T04:38:02;4.95;;;2.33;;
45136;SDS011;30894;51.740;19.498;2023-02-19T04:40:28;3.08;;;2.70;;
45136;SDS011;30894;51.740;19.498;2023-02-19T04:42:57;1.95;;;1.58;;
45136;SDS011;30894;51.740;19.498;2023-02-19T04:45:23;2.67;;;1.45;;
45136;SDS011;30894;51.740;19.498;2023-02-19T04:47:50;2.17;;;1.73;;
45136;SDS011;30894;51.740;19.498;2023-02-19T04:50:16;1.55;;;1.42;;
45136;SDS011;30894;51.740;19.498;2023-02-19T04:52:42;4.18;;;2.67;;
45136;SDS011;30894;51.740;19.498;2023-02-19T04:55:09;3.15;;;2.40;;
45136;SDS011;30894;51.740;19.498;2023-02-19T04:57:35;5.75;;;2.42;;
45136;SDS011;30894;51.740;19.498;2023-02-19T05:00:02;3.15;;;2.22;;
45136;SDS011;30894;51.740;19.498;2023-02-19T05:02:31;2.28;;;1.92;;
45136;SDS011;30894;51.740;19.498;2023-02-19T05:04:58;2.85;;;1.75;;
45136;SDS011;30894;51.740;19.498;2023-02-19T05:07:26;2.78;;;1.92;;
45136;SDS011;30894;51.740;19.498;2023-02-19T05:09:52;1.92;;;1.20;;
45136;SDS011;30894;51.740;19.498;2023-02-19T05:12:19;1.55;;;1.38;;
45136;SDS011;30894;51.740;19.498;2023-02-19T05:14:45;1.67;;;1.25;;
45136;SDS011;30894;51.740;19.498;2023-02-19T05:17:15;2.72;;;1.52;;
45136;SDS011;30894;51.740;19.498;2023-02-19T05:19:41;1.92;;;1.83;;
45136;SDS011;30894;51.740;19.498;2023-02-19T05:22:08;1.45;;;1.33;;
45136;SDS011;30894;51.740;19.498;2023-02-19T05:24:35;1.05;;;0.95;;
45136;SDS011;30894;51.740;19.498;2023-02-19T05:27:01;2.08;;;1.25;;
45136;SDS011;30894;51.740;19.498;2023-02-19T05:29:29;2.28;;;2.08;;
45136;SDS011;30894;51.740;19.498;2023-02-19T05:31:56;1.27;;;1.17;;
45136;SDS011;30894;51.740;19.498;2023-02-19T05:34:22;3.90;;;2.13;;
45136;SDS011;30894;51.740;19.498;2023-02-19T05:36:50;2.22;;;1.27;;
45136;SDS011;30894;51.740;19.498;2023-02-19T05:39:15;3.00;;;1.67;;
45136;SDS011;30894;51.740;19.498;2023-02-19T05:41:44;4.22;;;1.38;;
45136;SDS011;30894;51.740;19.498;2023-02-19T05:44:10;1.60;;;1.50;;
45136;SDS011;30894;51.740;19.498;2023-02-19T05:46:39;5.78;;;2.40;;
45136;SDS011;30894;51.740;19.498;2023-02-19T05:49:06;4.70;;;2.67;;
45136;SDS011;30894;51.740;19.498;2023-02-19T05:51:33;5.78;;;2.17;;
45136;SDS011;30894;51.740;19.498;2023-02-19T05:54:00;3.50;;;2.17;;
45136;SDS011;30894;51.740;19.498;2023-02-19T05:56:34;3.70;;;2.50;;
45136;SDS011;30894;51.740;19.498;2023-02-19T06:01:48;4.68;;;2.17;;
45136;SDS011;30894;51.740;19.498;2023-02-19T06:04:18;12.02;;;3.17;;
45136;SDS011;30894;51.740;19.498;2023-02-19T06:06:47;6.38;;;4.03;;
45136;SDS011;30894;51.740;19.498;2023-02-19T06:09:19;6.80;;;3.33;;
45136;SDS011;30894;51.740;19.498;2023-02-19T06:11:48;6.35;;;2.42;;
45136;SDS011;30894;51.740;19.498;2023-02-19T06:14:15;5.97;;;3.20;;
45136;SDS011;30894;51.740;19.498;2023-02-19T06:16:43;6.75;;;3.58;;
45136;SDS011;30894;51.740;19.498;2023-02-19T06:19:10;7.72;;;3.65;;
45136;SDS011;30894;51.740;19.498;2023-02-19T06:21:39;7.55;;;3.58;;
45136;SDS011;30894;51.740;19.498;2023-02-19T06:24:07;5.65;;;2.60;;
45136;SDS011;30894;51.740;19.498;2023-02-19T06:26:34;6.32;;;2.88;;
45136;SDS011;30894;51.740;19.498;2023-02-19T06:29:04;11.50;;;3.75;;
45136;SDS011;30894;51.740;19.498;2023-02-19T06:31:33;12.20;;;3.83;;
45136;SDS011;30894;51.740;19.498;2023-02-19T06:34:03;7.63;;;3.53;;
45136;SDS011;30894;51.740;19.498;2023-02-19T06:36:33;10.32;;;4.75;;
45136;SDS011;30894;51.740;19.498;2023-02-19T06:39:01;10.60;;;4.95;;
45136;SDS011;30894;51.740;19.498;2023-02-19T06:41:30;16.48;;;4.68;;
45136;SDS011;30894;51.740;19.498;2023-02-19T06:43:58;8.07;;;4.07;;
45136;SDS011;30894;51.740;19.498;2023-02-19T06:46:26;10.27;;;4.25;;
45136;SDS011;30894;51.740;19.498;2023-02-19T06:48:55;11.77;;;3.25;;
45136;SDS011;30894;51.740;19.498;2023-02-19T06:51:23;7.72;;;3.70;;
45136;SDS011;30894;51.740;19.498;2023-02-19T06:53:54;5.80;;;3.05;;
45136;SDS011;30894;51.740;19.498;2023-02-19T06:56:25;4.38;;;2.38;;
45136;SDS011;30894;51.740;19.498;2023-02-19T06:59:02;5.88;;;3.45;;
45136;SDS011;30894;51.740;19.498;2023-02-19T07:01:34;5.88;;;2.58;;
45136;SDS011;30894;51.740;19.498;2023-02-19T07:04:02;5.82;;;3.45;;
45136;SDS011;30894;51.740;19.498;2023-02-19T07:06:33;7.72;;;3.28;;
45136;SDS011;30894;51.740;19.498;2023-02-19T07:09:00;5.10;;;3.35;;
45136;SDS011;30894;51.740;19.498;2023-02-19T07:11:29;6.80;;;2.70;;
45136;SDS011;30894;51.740;19.498;2023-02-19T07:13:59;5.05;;;2.75;;
45136;SDS011;30894;51.740;19.498;2023-02-19T07:16:29;12.40;;;2.83;;
45136;SDS011;30894;51.740;19.498;2023-02-19T07:18:59;4.35;;;3.60;;
45136;SDS011;30894;51.740;19.498;2023-02-19T07:21:31;6.72;;;3.45;;
45136;SDS011;30894;51.740;19.498;2023-02-19T07:24:04;9.90;;;4.28;;
45136;SDS011;30894;51.740;19.498;2023-02-19T07:26:31;7.05;;;3.88;;
45136;SDS011;30894;51.740;19.498;2023-02-19T07:29:04;7.88;;;3.85;;
45136;SDS011;30894;51.740;19.498;2023-02-19T07:31:41;7.37;;;3.07;;
45136;SDS011;30894;51.740;19.498;2023-02-19T07:34:25;6.03;;;3.22;;
45136;SDS011;30894;51.740;19.498;2023-02-19T07:36:55;6.80;;;3.83;;
45136;SDS011;30894;51.740;19.498;2023-02-19T07:39:25;8.77;;;4.75;;
45136;SDS011;30894;51.740;19.498;2023-02-19T07:41:53;9.63;;;4.18;;
45136;SDS011;30894;51.740;19.498;2023-02-19T07:44:21;8.38;;;3.28;;
45136;SDS011;30894;51.740;19.498;2023-02-19T07:47:17;6.93;;;3.75;;
45136;SDS011;30894;51.740;19.498;2023-02-19T07:50:11;12.85;;;4.50;;
45136;SDS011;30894;51.740;19.498;2023-02-19T07:53:19;9.57;;;4.75;;
45136;SDS011;30894;51.740;19.498;2023-02-19T07:56:39;10.05;;;5.03;;
45136;SDS011;30894;51.740;19.498;2023-02-19T07:59:38;11.18;;;5.35;;
45136;SDS011;30894;51.740;19.498;2023-02-19T08:03:09;10.73;;;4.15;;
45136;SDS011;30894;51.740;19.498;2023-02-19T08:05:46;10.63;;;5.00;;
45136;SDS011;30894;51.740;19.498;2023-02-19T08:08:20;9.80;;;5.07;;
45136;SDS011;30894;51.740;19.498;2023-02-19T08:10:53;9.60;;;4.30;;
45136;SDS011;30894;51.740;19.498;2023-02-19T08:13:50;9.52;;;4.72;;
45136;SDS011;30894;51.740;19.498;2023-02-19T08:16:22;10.73;;;3.92;;
45136;SDS011;30894;51.740;19.498;2023-02-19T08:19:11;6.72;;;2.92;;
45136;SDS011;30894;51.740;19.498;2023-02-19T08:25:44;5.32;;;2.80;;
45136;SDS011;30894;51.740;19.498;2023-02-19T08:28:28;13.95;;;3.67;;
45136;SDS011;30894;51.740;19.498;2023-02-19T08:42:11;6.82;;;3.80;;
45136;SDS011;30894;51.740;19.498;2023-02-19T08:46:32;9.93;;;3.60;;
45136;SDS011;30894;51.740;19.498;2023-02-19T08:49:16;4.78;;;2.40;;
45136;SDS011;30894;51.740;19.498;2023-02-19T08:51:50;8.43;;;3.15;;
45136;SDS011;30894;51.740;19.498;2023-02-19T08:54:26;5.18;;;2.78;;
45136;SDS011;30894;51.740;19.498;2023-02-19T08:57:05;7.25;;;2.33;;
45136;SDS011;30894;51.740;19.498;2023-02-19T08:59:32;4.22;;;2.30;;
45136;SDS011;30894;51.740;19.498;2023-02-19T09:02:00;9.80;;;2.05;;
45136;SDS011;30894;51.740;19.498;2023-02-19T09:04:26;4.75;;;2.38;;
45136;SDS011;30894;51.740;19.498;2023-02-19T09:06:55;5.20;;;2.13;;
45136;SDS011;30894;51.740;19.498;2023-02-19T09:09:25;6.93;;;2.40;;
45136;SDS011;30894;51.740;19.498;2023-02-19T09:11:52;5.78;;;2.95;;
45136;SDS011;30894;51.740;19.498;2023-02-19T09:14:24;9.10;;;2.65;;
45136;SDS011;30894;51.740;19.498;2023-02-19T09:16:51;5.53;;;3.00;;
45136;SDS011;30894;51.740;19.498;2023-02-19T09:19:17;6.03;;;2.70;;
45136;SDS011;30894;51.740;19.498;2023-02-19T09:21:44;4.00;;;2.08;;
45136;SDS011;30894;51.740;19.498;2023-02-19T09:24:10;6.45;;;3.15;;
45136;SDS011;30894;51.740;19.498;2023-02-19T09:26:37;4.30;;;2.47;;
45136;SDS011;30894;51.740;19.498;2023-02-19T09:29:03;8.20;;;2.95;;
45136;SDS011;30894;51.740;19.498;2023-02-19T09:31:30;9.35;;;2.08;;
45136;SDS011;30894;51.740;19.498;2023-02-19T09:33:59;3.13;;;2.05;;
45136;SDS011;30894;51.740;19.498;2023-02-19T09:36:26;4.97;;;2.35;;
45136;SDS011;30894;51.740;19.498;2023-02-19T09:38:58;4.07;;;2.55;;
45136;SDS011;30894;51.740;19.498;2023-02-19T09:41:28;4.22;;;2.00;;
45136;SDS011;30894;51.740;19.498;2023-02-19T09:44:09;5.47;;;2.47;;
45136;SDS011;30894;51.740;19.498;2023-02-19T09:46:50;4.40;;;1.80;;
45136;SDS011;30894;51.740;19.498;2023-02-19T09:49:23;5.47;;;2.55;;
45136;SDS011;30894;51.740;19.498;2023-02-19T09:52:06;3.67;;;1.98;;
45136;SDS011;30894;51.740;19.498;2023-02-19T09:54:50;6.60;;;2.03;;
45136;SDS011;30894;51.740;19.498;2023-02-19T09:57:24;3.70;;;1.95;;
45136;SDS011;30894;51.740;19.498;2023-02-19T10:00:02;3.67;;;2.40;;
45136;SDS011;30894;51.740;19.498;2023-02-19T10:03:32;6.97;;;2.75;;
45136;SDS011;30894;51.740;19.498;2023-02-19T10:06:30;6.00;;;3.10;;
45136;SDS011;30894;51.740;19.498;2023-02-19T10:09:10;7.03;;;2.90;;
45136;SDS011;30894;51.740;19.498;2023-02-19T10:11:53;8.02;;;3.00;;
45136;SDS011;30894;51.740;19.498;2023-02-19T10:17:01;9.25;;;2.97;;
45136;SDS011;30894;51.740;19.498;2023-02-19T10:19:32;5.20;;;2.05;;
45136;SDS011;30894;51.740;19.498;2023-02-19T10:22:01;5.78;;;2.45;;
45136;SDS011;30894;51.740;19.498;2023-02-19T10:24:28;4.93;;;2.60;;
45136;SDS011;30894;51.740;19.498;2023-02-19T10:26:56;4.82;;;2.88;;
45136;SDS011;30894;51.740;19.498;2023-02-19T10:29:22;8.48;;;2.63;;
45136;SDS011;30894;51.740;19.498;2023-02-19T10:37:44;5.60;;;2.10;;
45136;SDS011;30894;51.740;19.498;2023-02-19T10:40:18;3.53;;;2.03;;
45136;SDS011;30894;51.740;19.498;2023-02-19T10:42:49;3.00;;;2.08;;
45136;SDS011;30894;51.740;19.498;2023-02-19T10:48:16;2.97;;;1.30;;
45136;SDS011;30894;51.740;19.498;2023-02-19T10:51:11;3.88;;;1.73;;
45136;SDS011;30894;51.740;19.498;2023-02-19T10:57:12;6.40;;;1.67;;
45136;SDS011;30894;51.740;19.498;2023-02-19T11:00:23;3.60;;;1.83;;
45136;SDS011;30894;51.740;19.498;2023-02-19T11:05:49;3.15;;;1.58;;
45136;SDS011;30894;51.740;19.498;2023-02-19T11:08:33;4.03;;;1.05;;
45136;SDS011;30894;51.740;19.498;2023-02-19T11:11:48;2.67;;;1.55;;
45136;SDS011;30894;51.740;19.498;2023-02-19T11:23:05;1.98;;;1.40;;
45136;SDS011;30894;51.740;19.498;2023-02-19T11:26:27;4.60;;;1.65;;
45136;SDS011;30894;51.740;19.498;2023-02-19T11:53:38;4.10;;;1.42;;
45136;SDS011;30894;51.740;19.498;2023-02-19T12:52:51;5.63;;;1.50;;
45136;SDS011;30894;51.740;19.498;2023-02-19T13:00:00;3.25;;;1.20;;
45136;SDS011;30894;51.740;19.498;2023-02-19T13:02:54;3.92;;;1.50;;
45136;SDS011;30894;51.740;19.498;2023-02-19T13:08:31;2.08;;;1.27;;
45136;SDS011;30894;51.740;19.498;2023-02-19T13:15:40;5.13;;;1.55;;
45136;SDS011;30894;51.740;19.498;2023-02-19T13:19:04;4.65;;;1.85;;
45136;SDS011;30894;51.740;19.498;2023-02-19T13:21:54;3.17;;;1.38;;
45136;SDS011;30894;51.740;19.498;2023-02-19T13:37:19;4.43;;;1.42;;
45136;SDS011;30894;51.740;19.498;2023-02-19T13:39:51;7.65;;;1.50;;
45136;SDS011;30894;51.740;19.498;2023-02-19T13:42:25;5.30;;;0.98;;
45136;SDS011;30894;51.740;19.498;2023-02-19T13:45:05;2.42;;;1.38;;
45136;SDS011;30894;51.740;19.498;2023-02-19T13:58:50;3.15;;;1.25;;
45136;SDS011;30894;51.740;19.498;2023-02-19T14:07:46;1.58;;;0.70;;
45136;SDS011;30894;51.740;19.498;2023-02-19T14:11:10;2.20;;;0.93;;
45136;SDS011;30894;51.740;19.498;2023-02-19T14:21:37;0.88;;;0.70;;
45136;SDS011;30894;51.740;19.498;2023-02-19T14:24:46;6.38;;;1.15;;
45136;SDS011;30894;51.740;19.498;2023-02-19T14:27:19;4.78;;;1.10;;
45136;SDS011;30894;51.740;19.498;2023-02-19T14:29:59;2.33;;;1.02;;
45136;SDS011;30894;51.740;19.498;2023-02-19T14:32:37;4.85;;;1.17;;
45136;SDS011;30894;51.740;19.498;2023-02-19T14:35:24;3.47;;;0.98;;
45136;SDS011;30894;51.740;19.498;2023-02-19T14:42:44;1.35;;;0.88;;
45136;SDS011;30894;51.740;19.498;2023-02-19T14:49:18;1.75;;;0.70;;
45136;SDS011;30894;51.740;19.498;2023-02-19T14:52:16;2.72;;;1.00;;
45136;SDS011;30894;51.740;19.498;2023-02-19T14:55:23;4.82;;;1.70;;
45136;SDS011;30894;51.740;19.498;2023-02-19T14:58:03;1.02;;;0.85;;
45136;SDS011;30894;51.740;19.498;2023-02-19T15:01:25;3.28;;;1.13;;
45136;SDS011;30894;51.740;19.498;2023-02-19T15:04:26;3.42;;;0.95;;
45136;SDS011;30894;51.740;19.498;2023-02-19T15:07:16;4.00;;;1.17;;
45136;SDS011;30894;51.740;19.498;2023-02-19T15:10:10;3.45;;;0.88;;
45136;SDS011;30894;51.740;19.498;2023-02-19T15:13:10;2.00;;;0.88;;
45136;SDS011;30894;51.740;19.498;2023-02-19T15:16:18;4.13;;;1.10;;
45136;SDS011;30894;51.740;19.498;2023-02-19T15:18:58;1.15;;;0.70;;
45136;SDS011;30894;51.740;19.498;2023-02-19T15:21:52;2.35;;;0.80;;
45136;SDS011;30894;51.740;19.498;2023-02-19T15:24:59;3.00;;;1.02;;
45136;SDS011;30894;51.740;19.498;2023-02-19T15:28:29;3.05;;;0.77;;
45136;SDS011;30894;51.740;19.498;2023-02-19T15:31:26;2.33;;;0.60;;
45136;SDS011;30894;51.740;19.498;2023-02-19T15:34:17;5.70;;;1.17;;
45136;SDS011;30894;51.740;19.498;2023-02-19T15:37:22;1.48;;;0.82;;
45136;SDS011;30894;51.740;19.498;2023-02-19T15:40:11;1.48;;;0.70;;
45136;SDS011;30894;51.740;19.498;2023-02-19T15:42:58;2.20;;;1.17;;
45136;SDS011;30894;51.740;19.498;2023-02-19T15:46:33;3.40;;;0.93;;
45136;SDS011;30894;51.740;19.498;2023-02-19T15:52:10;3.03;;;0.90;;
45136;SDS011;30894;51.740;19.498;2023-02-19T15:54:57;4.22;;;1.13;;
45136;SDS011;30894;51.740;19.498;2023-02-19T16:01:23;2.55;;;0.77;;
45136;SDS011;30894;51.740;19.498;2023-02-19T16:04:02;4.45;;;1.02;;
45136;SDS011;30894;51.740;19.498;2023-02-19T16:06:51;5.47;;;1.05;;
45136;SDS011;30894;51.740;19.498;2023-02-19T16:09:41;5.43;;;1.17;;
45136;SDS011;30894;51.740;19.498;2023-02-19T16:15:26;2.00;;;1.27;;
45136;SDS011;30894;51.740;19.498;2023-02-19T16:17:55;1.27;;;0.80;;
45136;SDS011;30894;51.740;19.498;2023-02-19T16:20:31;1.63;;;1.25;;
45136;SDS011;30894;51.740;19.498;2023-02-19T16:23:11;2.50;;;1.27;;
45136;SDS011;30894;51.740;19.498;2023-02-19T16:25:55;3.88;;;0.82;;
45136;SDS011;30894;51.740;19.498;2023-02-19T16:28:31;6.25;;;1.88;;
45136;SDS011;30894;51.740;19.498;2023-02-19T16:31:29;3.42;;;1.13;;
45136;SDS011;30894;51.740;19.498;2023-02-19T16:45:18;5.75;;;1.30;;
45136;SDS011;30894;51.740;19.498;2023-02-19T16:47:52;5.32;;;1.63;;
45136;SDS011;30894;51.740;19.498;2023-02-19T16:50:42;6.03;;;1.38;;
45136;SDS011;30894;51.740;19.498;2023-02-19T16:53:15;5.40;;;1.30;;
45136;SDS011;30894;51.740;19.498;2023-02-19T16:56:07;2.43;;;1.60;;
45136;SDS011;30894;51.740;19.498;2023-02-19T16:58:44;2.67;;;1.30;;
45136;SDS011;30894;51.740;19.498;2023-02-19T17:01:48;5.03;;;1.50;;
45136;SDS011;30894;51.740;19.498;2023-02-19T17:08:42;3.67;;;1.33;;
45136;SDS011;30894;51.740;19.498;2023-02-19T17:11:28;2.38;;;1.13;;
45136;SDS011;30894;51.740;19.498;2023-02-19T17:13:58;4.63;;;1.52;;
45136;SDS011;30894;51.740;19.498;2023-02-19T17:16:48;4.43;;;1.17;;
45136;SDS011;30894;51.740;19.498;2023-02-19T17:19:50;1.60;;;1.10;;
45136;SDS011;30894;51.740;19.498;2023-02-19T17:22:49;7.15;;;1.58;;
45136;SDS011;30894;51.740;19.498;2023-02-19T17:25:19;7.35;;;1.60;;
45136;SDS011;30894;51.740;19.498;2023-02-19T17:27:46;4.75;;;1.20;;
45136;SDS011;30894;51.740;19.498;2023-02-19T17:30:27;5.05;;;1.00;;
45136;SDS011;30894;51.740;19.498;2023-02-19T17:33:03;2.05;;;1.15;;
45136;SDS011;30894;51.740;19.498;2023-02-19T17:35:47;3.58;;;1.58;;
45136;SDS011;30894;51.740;19.498;2023-02-19T17:38:53;4.82;;;1.65;;
45136;SDS011;30894;51.740;19.498;2023-02-19T17:41:42;7.45;;;2.55;;
45136;SDS011;30894;51.740;19.498;2023-02-19T17:44:18;5.70;;;2.92;;
45136;SDS011;30894;51.740;19.498;2023-02-19T17:46:50;9.43;;;3.40;;
45136;SDS011;30894;51.740;19.498;2023-02-19T17:49:25;6.35;;;2.70;;
45136;SDS011;30894;51.740;19.498;2023-02-19T17:52:03;4.68;;;2.03;;
45136;SDS011;30894;51.740;19.498;2023-02-19T17:58:01;5.18;;;1.77;;
45136;SDS011;30894;51.740;19.498;2023-02-19T18:00:40;4.00;;;1.40;;
45136;SDS011;30894;51.740;19.498;2023-02-19T18:03:31;5.65;;;1.25;;
45136;SDS011;30894;51.740;19.498;2023-02-19T18:06:20;8.43;;;1.75;;
45136;SDS011;30894;51.740;19.498;2023-02-19T18:09:34;1.88;;;1.15;;
45136;SDS011;30894;51.740;19.498;2023-02-19T18:12:04;3.47;;;1.20;;
45136;SDS011;30894;51.740;19.498;2023-02-19T18:14:58;9.25;;;2.00;;
45136;SDS011;30894;51.740;19.498;2023-02-19T18:18:15;2.45;;;1.00;;
45136;SDS011;30894;51.740;19.498;2023-02-19T18:20:47;8.10;;;1.73;;
45136;SDS011;30894;51.740;19.498;2023-02-19T18:23:46;5.43;;;1.27;;
45136;SDS011;30894;51.740;19.498;2023-02-19T18:27:24;5.35;;;1.90;;
45136;SDS011;30894;51.740;19.498;2023-02-19T18:30:00;6.53;;;2.55;;
45136;SDS011;30894;51.740;19.498;2023-02-19T18:32:48;6.38;;;1.70;;
45136;SDS011;30894;51.740;19.498;2023-02-19T18:38:36;5.07;;;1.90;;
45136;SDS011;30894;51.740;19.498;2023-02-19T18:41:50;4.57;;;1.80;;
45136;SDS011;30894;51.740;19.498;2023-02-19T18:44:45;6.90;;;2.42;;
45136;SDS011;30894;51.740;19.498;2023-02-19T18:47:24;5.22;;;2.05;;
45136;SDS011;30894;51.740;19.498;2023-02-19T18:50:32;7.00;;;2.38;;
45136;SDS011;30894;51.740;19.498;2023-02-19T18:53:02;7.03;;;2.55;;
45136;SDS011;30894;51.740;19.498;2023-02-19T18:55:49;6.07;;;1.88;;
45136;SDS011;30894;51.740;19.498;2023-02-19T18:59:07;6.97;;;2.42;;
45136;SDS011;30894;51.740;19.498;2023-02-19T19:01:56;11.15;;;3.20;;
45136;SDS011;30894;51.740;19.498;2023-02-19T19:04:29;8.43;;;2.08;;
45136;SDS011;30894;51.740;19.498;2023-02-19T19:07:26;4.82;;;1.85;;
45136;SDS011;30894;51.740;19.498;2023-02-19T19:12:39;4.03;;;1.90;;
45136;SDS011;30894;51.740;19.498;2023-02-19T19:15:46;5.25;;;2.20;;
45136;SDS011;30894;51.740;19.498;2023-02-19T19:19:03;6.50;;;1.95;;
45136;SDS011;30894;51.740;19.498;2023-02-19T19:21:36;3.15;;;1.75;;
45136;SDS011;30894;51.740;19.498;2023-02-19T19:24:06;3.25;;;1.52;;
45136;SDS011;30894;51.740;19.498;2023-02-19T19:26:35;4.10;;;1.33;;
45136;SDS011;30894;51.740;19.498;2023-02-19T19:29:14;2.72;;;1.45;;
45136;SDS011;30894;51.740;19.498;2023-02-19T19:32:06;9.27;;;2.45;;
45136;SDS011;30894;51.740;19.498;2023-02-19T19:34:57;5.15;;;2.35;;
45136;SDS011;30894;51.740;19.498;2023-02-19T19:37:32;6.55;;;2.00;;
45136;SDS011;30894;51.740;19.498;2023-02-19T19:40:16;5.70;;;1.88;;
45136;SDS011;30894;51.740;19.498;2023-02-19T19:43:24;5.22;;;1.75;;
45136;SDS011;30894;51.740;19.498;2023-02-19T19:46:46;3.50;;;1.23;;
45136;SDS011;30894;51.740;19.498;2023-02-19T19:49:20;1.90;;;1.27;;